createdAt,value
2018-12-14T00:00:28.188Z,8.47
2018-12-14T00:05:31.295Z,8.73
2018-12-14T00:10:34.373Z,8.33
2018-12-14T00:15:37.483Z,8.70
2018-12-14T00:20:40.560Z,8.53
2018-12-14T00:25:43.639Z,8.90
2018-12-14T00:30:46.717Z,8.60
2018-12-14T00:35:49.828Z,8.37
2018-12-14T00:40:52.937Z,8.67
2018-12-14T00:45:56.044Z,8.50
2018-12-14T00:50:59.119Z,9.40
2018-12-14T00:56:02.231Z,8.57
2018-12-14T01:01:05.315Z,9.13
2018-12-14T01:06:08.416Z,8.20
2018-12-14T01:11:11.497Z,8.10
2018-12-14T01:16:14.572Z,8.40
2018-12-14T01:21:17.886Z,7.80
2018-12-14T01:26:21.073Z,7.87
2018-12-14T01:31:24.152Z,7.77
2018-12-14T01:36:27.386Z,7.50
2018-12-14T01:41:30.459Z,8.33
2018-12-14T01:46:33.968Z,8.10
2018-12-14T01:51:37.040Z,8.00
2018-12-14T01:56:40.197Z,7.87
2018-12-14T02:01:43.847Z,8.03
2018-12-14T02:06:46.922Z,7.87
2018-12-14T02:11:50.000Z,7.70
2018-12-14T02:16:53.254Z,7.20
2018-12-14T02:21:56.335Z,7.17
2018-12-14T02:26:59.407Z,7.30
2018-12-14T02:32:02.551Z,8.37
2018-12-14T02:37:05.755Z,7.90
2018-12-14T02:42:08.941Z,8.57
2018-12-14T02:47:12.104Z,8.13
2018-12-14T02:52:15.179Z,8.17
2018-12-14T02:57:18.283Z,7.63
2018-12-14T03:02:21.502Z,6.17
2018-12-14T03:07:24.656Z,6.30
2018-12-14T03:12:27.743Z,6.70
2018-12-14T03:17:30.900Z,6.67
2018-12-14T03:22:34.310Z,5.73
2018-12-14T03:27:37.380Z,6.17
2018-12-14T03:32:40.522Z,6.07
2018-12-14T03:37:43.691Z,6.80
2018-12-14T03:42:46.774Z,6.33
2018-12-14T03:47:49.857Z,6.63
2018-12-14T03:52:52.928Z,6.72
2018-12-14T03:57:56.339Z,6.47
2018-12-14T04:02:59.751Z,6.20
2018-12-14T04:08:02.831Z,6.60
2018-12-14T04:13:05.938Z,6.30
2018-12-14T04:18:09.062Z,6.63
2018-12-14T04:23:12.227Z,7.40
2018-12-14T04:28:15.310Z,7.30
2018-12-14T04:33:18.764Z,7.60
2018-12-14T04:38:21.823Z,8.07
2018-12-14T04:43:24.943Z,7.33
2018-12-14T04:48:28.040Z,7.80
2018-12-14T04:53:31.150Z,8.50
2018-12-14T04:58:34.235Z,8.10
2018-12-14T05:03:37.316Z,7.97
2018-12-14T05:08:40.424Z,7.83
2018-12-14T05:13:43.509Z,7.67
2018-12-14T05:18:46.585Z,7.83
2018-12-14T05:23:49.708Z,8.20
2018-12-14T05:28:52.790Z,8.20
2018-12-14T05:33:55.876Z,8.93
2018-12-14T05:38:58.995Z,8.37
2018-12-14T05:44:02.251Z,8.45
2018-12-14T05:49:05.372Z,7.70
2018-12-14T05:54:08.449Z,7.57
2018-12-14T05:59:11.535Z,7.67
2018-12-14T06:04:14.630Z,7.87
2018-12-14T06:09:17.702Z,7.80
2018-12-14T06:14:20.929Z,7.67
2018-12-14T06:19:24.045Z,6.85
2018-12-14T06:24:27.117Z,6.07
2018-12-14T06:29:30.200Z,7.30
2018-12-14T06:34:33.309Z,7.60
2018-12-14T06:39:36.427Z,7.73
2018-12-14T06:44:39.526Z,8.17
2018-12-14T06:49:42.612Z,8.40
2018-12-14T06:54:45.688Z,6.90
2018-12-14T06:59:48.913Z,7.17
2018-12-14T07:04:51.999Z,7.97
2018-12-14T07:09:55.116Z,8.33
2018-12-14T07:14:58.236Z,7.13
2018-12-14T07:20:01.322Z,7.67
2018-12-14T07:25:04.870Z,7.57
2018-12-14T07:30:08.095Z,7.10
2018-12-14T07:35:11.177Z,7.50
2018-12-14T07:40:14.282Z,7.10
2018-12-14T07:45:17.365Z,7.13
2018-12-14T07:50:20.460Z,7.00
2018-12-14T07:55:23.540Z,7.70
2018-12-14T08:00:26.657Z,7.50
2018-12-14T08:05:29.745Z,8.47
2018-12-14T08:10:32.863Z,7.83
2018-12-14T08:15:36.055Z,8.37
2018-12-14T08:20:39.258Z,8.28
2018-12-14T08:25:42.321Z,8.10
2018-12-14T08:30:45.411Z,8.30
2018-12-14T08:35:48.499Z,8.23
2018-12-14T08:40:51.679Z,7.30
2018-12-14T08:45:54.774Z,8.93
2018-12-14T08:50:57.921Z,8.67
2018-12-14T08:56:01.121Z,8.83
2018-12-14T09:01:04.241Z,8.80
2018-12-14T09:06:07.333Z,8.33
2018-12-14T09:11:10.431Z,8.63
2018-12-14T09:16:13.511Z,9.23
2018-12-14T09:21:16.593Z,8.43
2018-12-14T09:26:19.710Z,8.13
2018-12-14T09:31:22.877Z,8.70
2018-12-14T09:36:25.994Z,8.00
2018-12-14T09:41:29.095Z,8.40
2018-12-14T09:46:37.025Z,8.45
2018-12-14T09:51:37.277Z,8.20
2018-12-14T09:56:40.389Z,9.00
2018-12-14T10:01:43.468Z,8.90
2018-12-14T10:06:47.419Z,7.93
2018-12-14T10:11:55.110Z,8.83
2018-12-14T10:16:55.701Z,8.47
2018-12-14T10:21:58.785Z,8.50
2018-12-14T10:27:01.878Z,8.87
2018-12-14T10:32:05.016Z,9.43
2018-12-14T10:37:08.121Z,9.05
2018-12-14T10:42:11.276Z,10.40
2018-12-14T10:47:14.364Z,9.50
2018-12-14T10:52:17.508Z,9.40
2018-12-14T10:57:20.661Z,10.43
2018-12-14T11:02:23.782Z,9.63
2018-12-14T11:07:26.868Z,10.00
2018-12-14T11:12:29.948Z,10.43
2018-12-14T11:17:33.047Z,11.30
2018-12-14T11:22:36.129Z,9.17
2018-12-14T11:27:39.241Z,10.73
2018-12-14T11:32:42.305Z,10.57
2018-12-14T11:37:45.383Z,10.60
2018-12-14T11:42:48.480Z,10.23
2018-12-14T11:47:51.560Z,9.83
2018-12-14T11:52:54.765Z,9.60
2018-12-14T11:57:57.854Z,9.23
2018-12-14T12:03:00.956Z,9.57
2018-12-14T12:08:04.124Z,10.03
2018-12-14T12:13:07.243Z,10.10
2018-12-14T12:18:10.333Z,9.38
2018-12-14T12:23:13.421Z,9.90
2018-12-14T12:28:16.515Z,9.80
2018-12-14T12:33:19.594Z,9.17
2018-12-14T12:38:22.667Z,9.00
2018-12-14T12:43:25.815Z,9.90
2018-12-14T12:48:28.887Z,9.00
2018-12-14T12:53:32.004Z,8.93
2018-12-14T12:58:35.100Z,9.10
2018-12-14T13:03:38.182Z,9.77
2018-12-14T13:08:41.285Z,9.33
2018-12-14T13:13:44.369Z,10.03
2018-12-14T13:18:47.455Z,9.50
2018-12-14T13:23:50.587Z,9.43
2018-12-14T13:28:53.683Z,9.30
2018-12-14T13:33:56.763Z,9.60
2018-12-14T13:38:59.823Z,9.50
2018-12-14T13:44:02.915Z,10.20
2018-12-14T13:49:06.272Z,10.43
2018-12-14T13:54:09.356Z,10.23
2018-12-14T13:59:12.439Z,11.27
2018-12-14T14:04:15.584Z,11.12
2018-12-14T14:09:18.712Z,11.03
2018-12-14T14:14:21.831Z,10.90
2018-12-14T14:19:25.758Z,10.67
2018-12-14T14:24:29.094Z,11.03
2018-12-14T14:29:32.155Z,11.30
2018-12-14T14:34:35.238Z,10.53
2018-12-14T14:39:38.557Z,10.93
2018-12-14T14:44:41.650Z,11.00
2018-12-14T14:49:44.731Z,10.27
2018-12-14T14:54:49.811Z,10.82
2018-12-14T14:59:52.876Z,10.87
2018-12-14T15:04:56.879Z,10.70
2018-12-14T15:10:00.029Z,11.63
2018-12-14T15:15:06.533Z,11.23
2018-12-14T15:20:08.449Z,10.70
2018-12-14T15:25:11.872Z,9.53
2018-12-14T15:30:14.995Z,8.93
2018-12-14T15:35:18.121Z,7.83
2018-12-14T15:40:21.308Z,7.40
2018-12-14T15:45:24.387Z,7.60
2018-12-14T15:50:27.494Z,6.93
2018-12-14T15:55:30.563Z,7.60
2018-12-14T16:00:33.781Z,7.83
2018-12-14T16:05:36.861Z,7.30
2018-12-14T16:10:39.968Z,7.97
2018-12-14T16:15:43.146Z,7.53
2018-12-14T16:20:46.294Z,8.27
2018-12-14T16:25:49.471Z,7.53
2018-12-14T16:30:52.617Z,7.73
2018-12-14T16:35:56.016Z,7.70
2018-12-14T16:40:59.484Z,7.07
2018-12-14T16:46:02.563Z,7.93
2018-12-14T16:51:05.817Z,7.77
2018-12-14T16:56:09.840Z,7.77
2018-12-14T17:01:13.232Z,8.33
2018-12-14T17:06:16.433Z,7.90
2018-12-14T17:11:19.576Z,8.10
2018-12-14T17:16:22.715Z,8.37
2018-12-14T17:21:25.924Z,8.70
2018-12-14T17:26:29.113Z,8.40
2018-12-14T17:31:32.184Z,8.57
2018-12-14T17:36:35.564Z,7.80
2018-12-14T17:41:38.810Z,7.47
2018-12-14T17:46:42.040Z,7.83
2018-12-14T17:51:45.279Z,8.00
2018-12-14T17:56:48.411Z,8.23
2018-12-14T18:01:51.549Z,7.50
2018-12-14T18:06:54.625Z,7.40
2018-12-14T18:11:57.692Z,7.53
2018-12-14T18:17:00.789Z,7.47
2018-12-14T18:22:04.016Z,7.03
2018-12-14T18:27:07.164Z,6.60
2018-12-14T18:32:10.242Z,6.90
2018-12-14T18:37:13.713Z,6.73
2018-12-14T18:42:16.840Z,6.33
2018-12-14T18:47:20.032Z,6.03
2018-12-14T18:52:23.098Z,6.30
2018-12-14T18:57:26.492Z,6.33
2018-12-14T19:02:29.563Z,7.17
2018-12-14T19:07:32.631Z,7.33
2018-12-14T19:12:35.887Z,7.80
2018-12-14T19:17:39.017Z,7.23
2018-12-14T19:22:42.146Z,7.83
2018-12-14T19:27:45.270Z,7.30
2018-12-14T19:32:48.453Z,7.40
2018-12-14T19:37:51.619Z,7.17
2018-12-14T19:42:54.770Z,6.67
2018-12-14T19:47:57.901Z,7.27
2018-12-14T19:53:01.049Z,7.80
2018-12-14T19:58:04.261Z,7.80
2018-12-14T20:03:07.455Z,8.00
2018-12-14T20:08:12.337Z,8.40
2018-12-14T20:13:15.542Z,8.73
2018-12-14T20:18:18.696Z,8.33
2018-12-14T20:23:21.835Z,8.40
2018-12-14T20:28:24.963Z,8.47
2018-12-14T20:33:28.086Z,8.60
2018-12-14T20:38:31.199Z,8.93
2018-12-14T20:43:34.328Z,9.10
2018-12-14T20:48:37.444Z,9.10
2018-12-14T20:53:40.575Z,9.10
2018-12-14T20:58:43.696Z,10.17
2018-12-14T21:03:46.806Z,9.17
2018-12-14T21:08:49.901Z,10.63
2018-12-14T21:13:53.012Z,9.47
2018-12-14T21:18:56.112Z,10.30
2018-12-14T21:23:59.242Z,11.13
2018-12-14T21:29:02.381Z,10.40
2018-12-14T21:34:05.528Z,11.07
2018-12-14T21:39:08.625Z,11.20
2018-12-14T21:44:11.712Z,10.90
2018-12-14T21:49:14.801Z,11.90
2018-12-14T21:54:17.890Z,12.20
2018-12-14T21:59:20.987Z,12.80
2018-12-14T22:04:24.096Z,12.68
2018-12-14T22:09:27.172Z,12.43
2018-12-14T22:14:30.353Z,11.07
2018-12-14T22:19:33.445Z,11.43
2018-12-14T22:24:36.539Z,11.57
2018-12-14T22:29:39.624Z,11.40
2018-12-14T22:34:42.711Z,11.47
2018-12-14T22:39:45.805Z,11.50
2018-12-14T22:44:49.000Z,12.03
2018-12-14T22:49:52.092Z,11.97
2018-12-14T22:54:55.183Z,12.20
2018-12-14T22:59:58.356Z,11.33
2018-12-14T23:05:01.445Z,11.47
2018-12-14T23:10:05.588Z,11.63
2018-12-14T23:15:08.739Z,10.40
2018-12-14T23:20:11.851Z,11.13
2018-12-14T23:25:14.944Z,9.60
2018-12-14T23:30:18.030Z,10.35
2018-12-14T23:35:21.119Z,8.50
2018-12-14T23:40:24.204Z,9.37
2018-12-14T23:45:27.300Z,9.60
2018-12-14T23:50:30.382Z,8.53
2018-12-14T23:55:33.465Z,9.53
